sensor_id;sensor_type;location;lat;lon;timestamp;temperature;humidity
69331;DHT22;56475;52.114;5.480;2022-08-11T00:01:35;18.80;60.50
69331;DHT22;56475;52.114;5.480;2022-08-11T00:04:04;19.00;61.20
69331;DHT22;56475;52.114;5.480;2022-08-11T00:06:33;18.90;60.30
69331;DHT22;56475;52.114;5.480;2022-08-11T00:09:03;18.90;60.30
69331;DHT22;56475;52.114;5.480;2022-08-11T00:11:39;18.80;60.20
69331;DHT22;56475;52.114;5.480;2022-08-11T00:17:05;18.90;60.40
69331;DHT22;56475;52.114;5.480;2022-08-11T00:19:39;18.80;60.90
69331;DHT22;56475;52.114;5.480;2022-08-11T00:22:28;18.80;60.00
69331;DHT22;56475;52.114;5.480;2022-08-11T00:24:56;18.80;59.90
69331;DHT22;56475;52.114;5.480;2022-08-11T00:27:32;18.80;60.10
69331;DHT22;56475;52.114;5.480;2022-08-11T00:30:00;18.70;61.20
69331;DHT22;56475;52.114;5.480;2022-08-11T00:32:29;18.50;60.20
69331;DHT22;56475;52.114;5.480;2022-08-11T00:34:57;18.60;61.00
69331;DHT22;56475;52.114;5.480;2022-08-11T00:37:53;18.60;61.10
69331;DHT22;56475;52.114;5.480;2022-08-11T00:40:36;18.50;61.10
69331;DHT22;56475;52.114;5.480;2022-08-11T00:46:10;18.40;61.10
69331;DHT22;56475;52.114;5.480;2022-08-11T00:49:15;18.40;61.50
69331;DHT22;56475;52.114;5.480;2022-08-11T01:08:20;18.00;63.60
69331;DHT22;56475;52.114;5.480;2022-08-11T01:11:32;17.80;62.70
69331;DHT22;56475;52.114;5.480;2022-08-11T01:29:00;17.20;63.60
69331;DHT22;56475;52.114;5.480;2022-08-11T01:34:48;17.00;66.70
69331;DHT22;56475;52.114;5.480;2022-08-11T01:40:34;16.80;66.90
69331;DHT22;56475;52.114;5.480;2022-08-11T01:52:15;16.50;67.80
69331;DHT22;56475;52.114;5.480;2022-08-11T01:55:13;16.40;66.10
69331;DHT22;56475;52.114;5.480;2022-08-11T01:57:52;16.30;68.60
69331;DHT22;56475;52.114;5.480;2022-08-11T02:00:25;16.30;69.40
69331;DHT22;56475;52.114;5.480;2022-08-11T02:03:05;16.20;69.50
69331;DHT22;56475;52.114;5.480;2022-08-11T02:11:27;16.10;70.40
69331;DHT22;56475;52.114;5.480;2022-08-11T02:19:48;15.80;71.10
69331;DHT22;56475;52.114;5.480;2022-08-11T02:25:37;15.80;71.60
69331;DHT22;56475;52.114;5.480;2022-08-11T02:28:21;15.70;72.40
69331;DHT22;56475;52.114;5.480;2022-08-11T02:43:02;15.40;73.00
69331;DHT22;56475;52.114;5.480;2022-08-11T02:45:36;15.30;73.60
69331;DHT22;56475;52.114;5.480;2022-08-11T02:56:57;15.20;74.20
69331;DHT22;56475;52.114;5.480;2022-08-11T02:59:55;15.20;73.90
69331;DHT22;56475;52.114;5.480;2022-08-11T03:05:25;15.10;74.20
69331;DHT22;56475;52.114;5.480;2022-08-11T03:10:59;14.90;74.60
69331;DHT22;56475;52.114;5.480;2022-08-11T03:13:55;15.00;75.40
69331;DHT22;56475;52.114;5.480;2022-08-11T03:22:39;14.70;73.60
69331;DHT22;56475;52.114;5.480;2022-08-11T03:25:48;14.70;76.00
69331;DHT22;56475;52.114;5.480;2022-08-11T03:28:30;14.70;76.30
69331;DHT22;56475;52.114;5.480;2022-08-11T03:34:04;14.50;76.10
69331;DHT22;56475;52.114;5.480;2022-08-11T03:42:36;14.50;76.30
69331;DHT22;56475;52.114;5.480;2022-08-11T03:45:34;14.40;75.10
69331;DHT22;56475;52.114;5.480;2022-08-11T03:48:27;14.40;76.90
69331;DHT22;56475;52.114;5.480;2022-08-11T04:02:16;14.30;77.00
69331;DHT22;56475;52.114;5.480;2022-08-11T04:05:25;14.30;77.50
69331;DHT22;56475;52.114;5.480;2022-08-11T04:11:03;14.10;77.10
69331;DHT22;56475;52.114;5.480;2022-08-11T04:22:37;14.10;77.70
69331;DHT22;56475;52.114;5.480;2022-08-11T04:31:07;13.90;76.30
69331;DHT22;56475;52.114;5.480;2022-08-11T04:36:46;13.90;78.40
69331;DHT22;56475;52.114;5.480;2022-08-11T04:48:56;13.90;80.00
69331;DHT22;56475;52.114;5.480;2022-08-11T05:13:43;14.20;77.80
69331;DHT22;56475;52.114;5.480;2022-08-11T05:16:56;14.30;80.10
69331;DHT22;56475;52.114;5.480;2022-08-11T05:19:45;14.40;80.10
69331;DHT22;56475;52.114;5.480;2022-08-11T05:22:32;14.40;79.70
69331;DHT22;56475;52.114;5.480;2022-08-11T05:25:30;14.60;78.90
69331;DHT22;56475;52.114;5.480;2022-08-11T05:28:55;14.70;80.10
69331;DHT22;56475;52.114;5.480;2022-08-11T05:31:54;14.80;79.20
69331;DHT22;56475;52.114;5.480;2022-08-11T05:34:50;14.90;79.40
69331;DHT22;56475;52.114;5.480;2022-08-11T05:37:35;15.00;77.00
69331;DHT22;56475;52.114;5.480;2022-08-11T05:40:12;15.20;79.50
69331;DHT22;56475;52.114;5.480;2022-08-11T05:43:00;15.40;79.40
69331;DHT22;56475;52.114;5.480;2022-08-11T05:45:57;15.40;78.30
69331;DHT22;56475;52.114;5.480;2022-08-11T05:48:44;15.70;79.40
69331;DHT22;56475;52.114;5.480;2022-08-11T05:51:34;15.80;77.70
69331;DHT22;56475;52.114;5.480;2022-08-11T05:54:26;16.00;78.60
69331;DHT22;56475;52.114;5.480;2022-08-11T05:57:21;16.20;78.10
69331;DHT22;56475;52.114;5.480;2022-08-11T06:00:09;16.40;79.10
69331;DHT22;56475;52.114;5.480;2022-08-11T06:02:47;16.50;77.60
69331;DHT22;56475;52.114;5.480;2022-08-11T06:05:15;16.70;78.70
69331;DHT22;56475;52.114;5.480;2022-08-11T06:07:47;17.00;77.10
69331;DHT22;56475;52.114;5.480;2022-08-11T06:10:31;17.10;77.10
69331;DHT22;56475;52.114;5.480;2022-08-11T06:13:00;17.30;77.60
69331;DHT22;56475;52.114;5.480;2022-08-11T06:15:30;17.50;76.00
69331;DHT22;56475;52.114;5.480;2022-08-11T06:17:59;17.60;76.00
69331;DHT22;56475;52.114;5.480;2022-08-11T06:20:27;17.90;75.70
69331;DHT22;56475;52.114;5.480;2022-08-11T06:23:04;18.00;74.80
69331;DHT22;56475;52.114;5.480;2022-08-11T06:25:33;18.20;74.60
69331;DHT22;56475;52.114;5.480;2022-08-11T06:28:03;18.90;74.00
69331;DHT22;56475;52.114;5.480;2022-08-11T06:30:35;18.50;73.30
69331;DHT22;56475;52.114;5.480;2022-08-11T06:33:10;18.70;73.00
69331;DHT22;56475;52.114;5.480;2022-08-11T06:35:38;18.90;72.10
69331;DHT22;56475;52.114;5.480;2022-08-11T06:41:06;19.20;70.20
69331;DHT22;56475;52.114;5.480;2022-08-11T06:46:43;19.60;69.70
69331;DHT22;56475;52.114;5.480;2022-08-11T06:49:13;19.70;68.30
69331;DHT22;56475;52.114;5.480;2022-08-11T06:52:11;19.90;67.40
69331;DHT22;56475;52.114;5.480;2022-08-11T06:55:12;20.10;67.10
69331;DHT22;56475;52.114;5.480;2022-08-11T06:58:03;20.30;66.50
69331;DHT22;56475;52.114;5.480;2022-08-11T07:00:55;20.40;65.80
69331;DHT22;56475;52.114;5.480;2022-08-11T07:03:27;20.60;65.30
69331;DHT22;56475;52.114;5.480;2022-08-11T07:06:24;20.70;64.50
69331;DHT22;56475;52.114;5.480;2022-08-11T07:12:49;21.10;63.70
69331;DHT22;56475;52.114;5.480;2022-08-11T07:15:58;21.30;62.80
69331;DHT22;56475;52.114;5.480;2022-08-11T07:18:40;21.50;62.00
69331;DHT22;56475;52.114;5.480;2022-08-11T07:21:29;21.60;60.70
69331;DHT22;56475;52.114;5.480;2022-08-11T07:24:37;21.90;60.40
69331;DHT22;56475;52.114;5.480;2022-08-11T07:27:41;22.00;59.70
69331;DHT22;56475;52.114;5.480;2022-08-11T07:30:27;22.20;59.20
69331;DHT22;56475;52.114;5.480;2022-08-11T07:32:57;22.30;58.60
69331;DHT22;56475;52.114;5.480;2022-08-11T07:35:47;22.50;57.90
69331;DHT22;56475;52.114;5.480;2022-08-11T07:38:18;22.50;57.10
69331;DHT22;56475;52.114;5.480;2022-08-11T07:40:51;22.70;57.10
69331;DHT22;56475;52.114;5.480;2022-08-11T07:43:18;22.90;56.90
69331;DHT22;56475;52.114;5.480;2022-08-11T07:45:45;23.00;56.10
69331;DHT22;56475;52.114;5.480;2022-08-11T07:48:32;23.20;56.90
69331;DHT22;56475;52.114;5.480;2022-08-11T07:51:19;23.40;55.50
69331;DHT22;56475;52.114;5.480;2022-08-11T07:54:05;23.50;54.90
69331;DHT22;56475;52.114;5.480;2022-08-11T07:56:42;23.70;54.40
69331;DHT22;56475;52.114;5.480;2022-08-11T07:59:30;23.90;53.90
69331;DHT22;56475;52.114;5.480;2022-08-11T08:02:38;24.10;53.30
69331;DHT22;56475;52.114;5.480;2022-08-11T08:05:24;24.30;52.30
69331;DHT22;56475;52.114;5.480;2022-08-11T08:08:11;24.40;52.20
69331;DHT22;56475;52.114;5.480;2022-08-11T08:10:58;24.60;51.70
69331;DHT22;56475;52.114;5.480;2022-08-11T08:13:53;24.90;51.10
69331;DHT22;56475;52.114;5.480;2022-08-11T08:16:40;25.10;50.50
69331;DHT22;56475;52.114;5.480;2022-08-11T08:19:26;25.30;49.80
69331;DHT22;56475;52.114;5.480;2022-08-11T08:21:54;25.40;49.40
69331;DHT22;56475;52.114;5.480;2022-08-11T08:24:38;25.60;49.10
69331;DHT22;56475;52.114;5.480;2022-08-11T08:27:09;25.80;48.10
69331;DHT22;56475;52.114;5.480;2022-08-11T08:29:38;26.00;47.70
69331;DHT22;56475;52.114;5.480;2022-08-11T08:32:25;26.20;47.00
69331;DHT22;56475;52.114;5.480;2022-08-11T08:34:54;26.40;46.30
69331;DHT22;56475;52.114;5.480;2022-08-11T08:37:23;26.50;45.40
69331;DHT22;56475;52.114;5.480;2022-08-11T08:40:12;26.70;44.50
69331;DHT22;56475;52.114;5.480;2022-08-11T08:42:48;26.90;44.00
69331;DHT22;56475;52.114;5.480;2022-08-11T08:45:20;27.10;43.40
69331;DHT22;56475;52.114;5.480;2022-08-11T08:50:21;26.80;42.10
69331;DHT22;56475;52.114;5.480;2022-08-11T08:53:09;28.00;42.60
69331;DHT22;56475;52.114;5.480;2022-08-11T08:55:38;27.80;42.20
69331;DHT22;56475;52.114;5.480;2022-08-11T08:58:12;27.90;42.00
69331;DHT22;56475;52.114;5.480;2022-08-11T09:00:43;28.10;41.60
69331;DHT22;56475;52.114;5.480;2022-08-11T09:03:12;28.30;40.50
69331;DHT22;56475;52.114;5.480;2022-08-11T09:05:59;28.50;40.00
69331;DHT22;56475;52.114;5.480;2022-08-11T09:08:26;28.70;38.50
69331;DHT22;56475;52.114;5.480;2022-08-11T09:10:56;28.90;37.90
69331;DHT22;56475;52.114;5.480;2022-08-11T09:13:45;29.10;37.70
69331;DHT22;56475;52.114;5.480;2022-08-11T09:16:30;29.40;37.30
69331;DHT22;56475;52.114;5.480;2022-08-11T09:18:59;29.80;36.70
69331;DHT22;56475;52.114;5.480;2022-08-11T09:21:26;30.10;35.40
69331;DHT22;56475;52.114;5.480;2022-08-11T09:24:14;30.50;34.70
69331;DHT22;56475;52.114;5.480;2022-08-11T09:27:04;30.70;33.90
69331;DHT22;56475;52.114;5.480;2022-08-11T09:29:32;31.00;33.00
69331;DHT22;56475;52.114;5.480;2022-08-11T09:32:00;31.20;31.70
69331;DHT22;56475;52.114;5.480;2022-08-11T09:34:27;31.40;31.20
69331;DHT22;56475;52.114;5.480;2022-08-11T09:36:55;31.70;31.90
69331;DHT22;56475;52.114;5.480;2022-08-11T09:40:06;31.80;29.80
69331;DHT22;56475;52.114;5.480;2022-08-11T09:42:54;32.10;29.20
69331;DHT22;56475;52.114;5.480;2022-08-11T09:45:40;32.40;28.90
69331;DHT22;56475;52.114;5.480;2022-08-11T09:48:10;32.60;28.50
69331;DHT22;56475;52.114;5.480;2022-08-11T09:50:38;32.90;28.00
69331;DHT22;56475;52.114;5.480;2022-08-11T09:53:06;33.10;27.70
69331;DHT22;56475;52.114;5.480;2022-08-11T09:55:53;33.30;27.50
69331;DHT22;56475;52.114;5.480;2022-08-11T09:58:21;33.60;26.70
69331;DHT22;56475;52.114;5.480;2022-08-11T10:01:09;33.80;26.20
69331;DHT22;56475;52.114;5.480;2022-08-11T10:03:57;34.00;25.80
69331;DHT22;56475;52.114;5.480;2022-08-11T10:06:27;34.20;25.50
69331;DHT22;56475;52.114;5.480;2022-08-11T10:09:20;34.30;24.80
69331;DHT22;56475;52.114;5.480;2022-08-11T10:11:57;34.50;24.30
69331;DHT22;56475;52.114;5.480;2022-08-11T10:14:26;34.70;24.20
69331;DHT22;56475;52.114;5.480;2022-08-11T10:17:16;34.90;23.00
69331;DHT22;56475;52.114;5.480;2022-08-11T10:19:47;35.10;22.90
69331;DHT22;56475;52.114;5.480;2022-08-11T10:22:32;35.20;22.70
69331;DHT22;56475;52.114;5.480;2022-08-11T10:25:19;35.40;22.50
69331;DHT22;56475;52.114;5.480;2022-08-11T10:28:07;35.70;22.30
69331;DHT22;56475;52.114;5.480;2022-08-11T10:30:55;35.90;22.30
69331;DHT22;56475;52.114;5.480;2022-08-11T10:33:44;36.10;22.10
69331;DHT22;56475;52.114;5.480;2022-08-11T10:36:47;36.40;21.90
69331;DHT22;56475;52.114;5.480;2022-08-11T10:39:20;36.60;21.80
69331;DHT22;56475;52.114;5.480;2022-08-11T10:41:48;36.70;21.40
69331;DHT22;56475;52.114;5.480;2022-08-11T10:44:46;36.90;21.20
69331;DHT22;56475;52.114;5.480;2022-08-11T10:47:16;37.20;21.60
69331;DHT22;56475;52.114;5.480;2022-08-11T10:50:12;37.40;20.60
69331;DHT22;56475;52.114;5.480;2022-08-11T10:52:59;37.50;20.10
69331;DHT22;56475;52.114;5.480;2022-08-11T10:55:45;37.60;20.40
69331;DHT22;56475;52.114;5.480;2022-08-11T10:58:32;37.80;20.60
69331;DHT22;56475;52.114;5.480;2022-08-11T11:01:11;38.00;20.00
69331;DHT22;56475;52.114;5.480;2022-08-11T11:03:41;38.10;19.60
69331;DHT22;56475;52.114;5.480;2022-08-11T11:06:32;38.20;19.20
69331;DHT22;56475;52.114;5.480;2022-08-11T11:09:07;38.30;19.50
69331;DHT22;56475;52.114;5.480;2022-08-11T11:11:38;38.60;19.10
69331;DHT22;56475;52.114;5.480;2022-08-11T11:14:31;38.80;18.80
69331;DHT22;56475;52.114;5.480;2022-08-11T11:17:51;38.90;18.90
69331;DHT22;56475;52.114;5.480;2022-08-11T11:23:27;39.10;19.10
69331;DHT22;56475;52.114;5.480;2022-08-11T11:34:47;39.60;18.50
69331;DHT22;56475;52.114;5.480;2022-08-11T11:37:23;39.80;18.60
69331;DHT22;56475;52.114;5.480;2022-08-11T11:39:52;39.70;18.00
69331;DHT22;56475;52.114;5.480;2022-08-11T11:42:20;39.70;18.90
69331;DHT22;56475;52.114;5.480;2022-08-11T11:44:49;39.70;18.60
69331;DHT22;56475;52.114;5.480;2022-08-11T11:47:22;40.00;18.20
69331;DHT22;56475;52.114;5.480;2022-08-11T11:49:49;40.20;17.70
69331;DHT22;56475;52.114;5.480;2022-08-11T11:52:19;40.40;17.40
69331;DHT22;56475;52.114;5.480;2022-08-11T11:54:52;40.50;17.00
69331;DHT22;56475;52.114;5.480;2022-08-11T11:57:21;40.70;17.30
69331;DHT22;56475;52.114;5.480;2022-08-11T12:00:24;40.70;16.90
69331;DHT22;56475;52.114;5.480;2022-08-11T12:03:10;40.90;16.50
69331;DHT22;56475;52.114;5.480;2022-08-11T12:05:41;41.00;16.40
69331;DHT22;56475;52.114;5.480;2022-08-11T12:08:11;41.10;16.50
69331;DHT22;56475;52.114;5.480;2022-08-11T12:10:46;41.10;16.40
69331;DHT22;56475;52.114;5.480;2022-08-11T12:13:15;41.30;16.40
69331;DHT22;56475;52.114;5.480;2022-08-11T12:16:02;41.30;16.50
69331;DHT22;56475;52.114;5.480;2022-08-11T12:18:55;41.30;16.60
69331;DHT22;56475;52.114;5.480;2022-08-11T12:21:23;41.40;16.30
69331;DHT22;56475;52.114;5.480;2022-08-11T12:23:51;41.50;16.20
69331;DHT22;56475;52.114;5.480;2022-08-11T12:26:39;41.50;15.40
69331;DHT22;56475;52.114;5.480;2022-08-11T12:29:35;41.70;15.50
69331;DHT22;56475;52.114;5.480;2022-08-11T12:32:09;41.60;15.80
69331;DHT22;56475;52.114;5.480;2022-08-11T12:34:37;41.70;15.80
69331;DHT22;56475;52.114;5.480;2022-08-11T12:37:05;41.70;15.80
69331;DHT22;56475;52.114;5.480;2022-08-11T12:39:52;41.90;16.00
69331;DHT22;56475;52.114;5.480;2022-08-11T12:43:03;42.00;16.10
69331;DHT22;56475;52.114;5.480;2022-08-11T12:46:11;42.30;16.00
69331;DHT22;56475;52.114;5.480;2022-08-11T12:48:47;42.50;15.60
69331;DHT22;56475;52.114;5.480;2022-08-11T12:51:39;42.60;15.60
69331;DHT22;56475;52.114;5.480;2022-08-11T12:55:05;42.70;15.30
69331;DHT22;56475;52.114;5.480;2022-08-11T12:57:44;42.80;15.10
69331;DHT22;56475;52.114;5.480;2022-08-11T13:00:30;42.90;15.30
69331;DHT22;56475;52.114;5.480;2022-08-11T13:03:18;43.00;14.80
69331;DHT22;56475;52.114;5.480;2022-08-11T13:06:05;43.00;14.60
69331;DHT22;56475;52.114;5.480;2022-08-11T13:08:35;43.10;14.50
69331;DHT22;56475;52.114;5.480;2022-08-11T13:11:03;43.20;14.80
69331;DHT22;56475;52.114;5.480;2022-08-11T13:13:50;43.20;14.60
69331;DHT22;56475;52.114;5.480;2022-08-11T13:16:27;43.40;14.20
69331;DHT22;56475;52.114;5.480;2022-08-11T13:18:57;43.40;14.10
69331;DHT22;56475;52.114;5.480;2022-08-11T13:21:25;43.40;14.10
69331;DHT22;56475;52.114;5.480;2022-08-11T13:23:53;43.50;14.50
69331;DHT22;56475;52.114;5.480;2022-08-11T13:26:33;43.50;13.90
69331;DHT22;56475;52.114;5.480;2022-08-11T13:29:20;43.50;14.00
69331;DHT22;56475;52.114;5.480;2022-08-11T13:31:50;43.40;14.10
69331;DHT22;56475;52.114;5.480;2022-08-11T13:34:19;43.50;14.40
69331;DHT22;56475;52.114;5.480;2022-08-11T13:36:54;43.50;14.20
69331;DHT22;56475;52.114;5.480;2022-08-11T13:39:25;43.50;14.10
69331;DHT22;56475;52.114;5.480;2022-08-11T13:41:54;43.50;13.80
69331;DHT22;56475;52.114;5.480;2022-08-11T13:44:25;43.50;14.00
69331;DHT22;56475;52.114;5.480;2022-08-11T13:47:01;43.50;13.80
69331;DHT22;56475;52.114;5.480;2022-08-11T13:49:31;43.50;13.90
69331;DHT22;56475;52.114;5.480;2022-08-11T13:51:59;43.40;15.20
69331;DHT22;56475;52.114;5.480;2022-08-11T13:54:30;43.50;14.40
69331;DHT22;56475;52.114;5.480;2022-08-11T13:57:02;43.50;14.40
69331;DHT22;56475;52.114;5.480;2022-08-11T13:59:35;43.50;14.20
69331;DHT22;56475;52.114;5.480;2022-08-11T14:02:22;43.70;14.20
69331;DHT22;56475;52.114;5.480;2022-08-11T14:04:58;43.90;14.20
69331;DHT22;56475;52.114;5.480;2022-08-11T14:07:34;44.10;13.80
69331;DHT22;56475;52.114;5.480;2022-08-11T14:10:03;44.20;13.70
69331;DHT22;56475;52.114;5.480;2022-08-11T14:12:34;44.10;13.50
69331;DHT22;56475;52.114;5.480;2022-08-11T14:15:22;43.90;13.60
69331;DHT22;56475;52.114;5.480;2022-08-11T14:18:06;43.90;13.90
69331;DHT22;56475;52.114;5.480;2022-08-11T14:20:38;43.70;13.60
69331;DHT22;56475;52.114;5.480;2022-08-11T14:23:32;43.40;13.90
69331;DHT22;56475;52.114;5.480;2022-08-11T14:26:00;43.30;13.60
69331;DHT22;56475;52.114;5.480;2022-08-11T14:28:46;43.50;13.60
69331;DHT22;56475;52.114;5.480;2022-08-11T14:31:15;43.50;13.80
69331;DHT22;56475;52.114;5.480;2022-08-11T14:33:43;43.60;13.60
69331;DHT22;56475;52.114;5.480;2022-08-11T14:36:38;43.70;13.70
69331;DHT22;56475;52.114;5.480;2022-08-11T14:39:17;43.70;13.70
69331;DHT22;56475;52.114;5.480;2022-08-11T14:41:47;43.80;13.70
69331;DHT22;56475;52.114;5.480;2022-08-11T14:44:41;43.90;13.60
69331;DHT22;56475;52.114;5.480;2022-08-11T14:47:30;43.90;13.80
69331;DHT22;56475;52.114;5.480;2022-08-11T14:49:59;44.10;13.50
69331;DHT22;56475;52.114;5.480;2022-08-11T14:52:42;44.10;14.40
69331;DHT22;56475;52.114;5.480;2022-08-11T14:55:11;44.10;13.80
69331;DHT22;56475;52.114;5.480;2022-08-11T14:57:58;44.00;13.30
69331;DHT22;56475;52.114;5.480;2022-08-11T15:00:26;43.80;13.20
69331;DHT22;56475;52.114;5.480;2022-08-11T15:02:54;43.80;13.50
69331;DHT22;56475;52.114;5.480;2022-08-11T15:05:50;43.80;13.20
69331;DHT22;56475;52.114;5.480;2022-08-11T15:08:26;43.70;13.20
69331;DHT22;56475;52.114;5.480;2022-08-11T15:11:15;43.70;13.00
69331;DHT22;56475;52.114;5.480;2022-08-11T15:14:02;43.70;13.00
69331;DHT22;56475;52.114;5.480;2022-08-11T15:16:30;43.60;13.20
69331;DHT22;56475;52.114;5.480;2022-08-11T15:19:17;43.60;13.40
69331;DHT22;56475;52.114;5.480;2022-08-11T15:21:48;43.50;13.10
69331;DHT22;56475;52.114;5.480;2022-08-11T15:24:35;43.50;13.30
69331;DHT22;56475;52.114;5.480;2022-08-11T15:27:16;43.40;13.40
69331;DHT22;56475;52.114;5.480;2022-08-11T15:30:04;43.20;13.20
69331;DHT22;56475;52.114;5.480;2022-08-11T15:33:05;43.10;13.20
69331;DHT22;56475;52.114;5.480;2022-08-11T15:35:53;43.10;13.70
69331;DHT22;56475;52.114;5.480;2022-08-11T15:38:48;43.00;13.60
69331;DHT22;56475;52.114;5.480;2022-08-11T15:41:26;42.90;13.30
69331;DHT22;56475;52.114;5.480;2022-08-11T15:44:28;42.90;13.60
69331;DHT22;56475;52.114;5.480;2022-08-11T15:47:41;42.80;13.60
69331;DHT22;56475;52.114;5.480;2022-08-11T15:50:17;42.70;13.90
69331;DHT22;56475;52.114;5.480;2022-08-11T15:52:51;42.60;13.80
69331;DHT22;56475;52.114;5.480;2022-08-11T15:55:20;42.50;13.90
69331;DHT22;56475;52.114;5.480;2022-08-11T15:57:51;42.40;13.80
69331;DHT22;56475;52.114;5.480;2022-08-11T16:00:39;42.30;13.90
69331;DHT22;56475;52.114;5.480;2022-08-11T16:03:46;42.10;13.90
69331;DHT22;56475;52.114;5.480;2022-08-11T16:06:38;41.90;14.10
69331;DHT22;56475;52.114;5.480;2022-08-11T16:09:19;41.70;14.10
69331;DHT22;56475;52.114;5.480;2022-08-11T16:11:48;41.60;14.10
69331;DHT22;56475;52.114;5.480;2022-08-11T16:14:18;41.50;14.20
69331;DHT22;56475;52.114;5.480;2022-08-11T16:17:06;41.40;14.20
69331;DHT22;56475;52.114;5.480;2022-08-11T16:19:36;41.40;14.60
69331;DHT22;56475;52.114;5.480;2022-08-11T16:22:11;41.30;14.60
69331;DHT22;56475;52.114;5.480;2022-08-11T16:24:41;41.20;14.60
69331;DHT22;56475;52.114;5.480;2022-08-11T16:27:32;41.20;14.90
69331;DHT22;56475;52.114;5.480;2022-08-11T16:30:02;41.10;14.90
69331;DHT22;56475;52.114;5.480;2022-08-11T16:32:33;41.10;15.20
69331;DHT22;56475;52.114;5.480;2022-08-11T16:35:05;41.00;15.00
69331;DHT22;56475;52.114;5.480;2022-08-11T16:37:53;40.90;15.30
69331;DHT22;56475;52.114;5.480;2022-08-11T16:40:40;40.90;15.20
69331;DHT22;56475;52.114;5.480;2022-08-11T16:43:12;40.70;15.40
69331;DHT22;56475;52.114;5.480;2022-08-11T16:46:01;40.50;15.40
69331;DHT22;56475;52.114;5.480;2022-08-11T16:48:49;40.40;15.50
69331;DHT22;56475;52.114;5.480;2022-08-11T16:51:19;40.20;15.40
69331;DHT22;56475;52.114;5.480;2022-08-11T16:53:48;40.10;15.60
69331;DHT22;56475;52.114;5.480;2022-08-11T16:59:06;39.80;16.30
69331;DHT22;56475;52.114;5.480;2022-08-11T17:01:51;39.70;16.40
69331;DHT22;56475;52.114;5.480;2022-08-11T17:04:42;39.60;16.40
69331;DHT22;56475;52.114;5.480;2022-08-11T17:07:30;39.30;16.40
69331;DHT22;56475;52.114;5.480;2022-08-11T17:10:32;39.10;16.30
69331;DHT22;56475;52.114;5.480;2022-08-11T17:13:41;38.80;16.60
69331;DHT22;56475;52.114;5.480;2022-08-11T17:16:11;38.60;16.80
69331;DHT22;56475;52.114;5.480;2022-08-11T17:19:12;38.50;17.30
69331;DHT22;56475;52.114;5.480;2022-08-11T17:21:46;38.30;17.20
69331;DHT22;56475;52.114;5.480;2022-08-11T17:24:38;38.00;17.00
69331;DHT22;56475;52.114;5.480;2022-08-11T17:27:12;37.80;17.10
69331;DHT22;56475;52.114;5.480;2022-08-11T17:29:47;37.60;17.40
69331;DHT22;56475;52.114;5.480;2022-08-11T17:32:33;37.50;17.60
69331;DHT22;56475;52.114;5.480;2022-08-11T17:35:29;37.30;17.70
69331;DHT22;56475;52.114;5.480;2022-08-11T17:38:04;37.10;18.00
69331;DHT22;56475;52.114;5.480;2022-08-11T17:40:41;37.10;18.10
69331;DHT22;56475;52.114;5.480;2022-08-11T17:43:29;36.90;18.10
69331;DHT22;56475;52.114;5.480;2022-08-11T17:46:16;36.70;18.50
69331;DHT22;56475;52.114;5.480;2022-08-11T17:49:05;36.50;18.70
69331;DHT22;56475;52.114;5.480;2022-08-11T17:51:34;36.30;18.70
69331;DHT22;56475;52.114;5.480;2022-08-11T17:54:21;36.20;19.00
69331;DHT22;56475;52.114;5.480;2022-08-11T17:57:08;36.10;20.30
69331;DHT22;56475;52.114;5.480;2022-08-11T17:59:54;35.90;19.30
69331;DHT22;56475;52.114;5.480;2022-08-11T18:02:35;35.70;19.60
69331;DHT22;56475;52.114;5.480;2022-08-11T18:05:32;35.60;19.70
69331;DHT22;56475;52.114;5.480;2022-08-11T18:08:02;35.30;19.80
69331;DHT22;56475;52.114;5.480;2022-08-11T18:10:49;35.20;20.40
69331;DHT22;56475;52.114;5.480;2022-08-11T18:13:37;35.00;20.70
69331;DHT22;56475;52.114;5.480;2022-08-11T18:16:25;34.70;20.80
69331;DHT22;56475;52.114;5.480;2022-08-11T18:19:10;34.50;21.10
69331;DHT22;56475;52.114;5.480;2022-08-11T18:22:04;34.30;21.30
69331;DHT22;56475;52.114;5.480;2022-08-11T18:24:57;34.00;21.30
69331;DHT22;56475;52.114;5.480;2022-08-11T18:27:46;33.70;21.60
69331;DHT22;56475;52.114;5.480;2022-08-11T18:30:35;33.40;21.90
69331;DHT22;56475;52.114;5.480;2022-08-11T18:33:36;33.00;22.10
69331;DHT22;56475;52.114;5.480;2022-08-11T18:36:40;32.70;22.40
69331;DHT22;56475;52.114;5.480;2022-08-11T18:39:33;32.30;22.80
69331;DHT22;56475;52.114;5.480;2022-08-11T18:42:23;32.00;23.10
69331;DHT22;56475;52.114;5.480;2022-08-11T18:45:13;31.50;23.50
69331;DHT22;56475;52.114;5.480;2022-08-11T18:48:14;31.20;23.70
69331;DHT22;56475;52.114;5.480;2022-08-11T18:51:04;30.90;24.10
69331;DHT22;56475;52.114;5.480;2022-08-11T18:54:05;30.50;24.30
69331;DHT22;56475;52.114;5.480;2022-08-11T18:56:52;30.20;24.60
69331;DHT22;56475;52.114;5.480;2022-08-11T18:59:41;30.00;24.80
69331;DHT22;56475;52.114;5.480;2022-08-11T19:02:30;29.80;25.10
69331;DHT22;56475;52.114;5.480;2022-08-11T19:05:17;29.60;25.30
69331;DHT22;56475;52.114;5.480;2022-08-11T19:08:29;29.40;25.60
69331;DHT22;56475;52.114;5.480;2022-08-11T19:11:16;29.20;25.80
69331;DHT22;56475;52.114;5.480;2022-08-11T19:14:11;29.00;26.10
69331;DHT22;56475;52.114;5.480;2022-08-11T19:16:59;28.80;26.40
69331;DHT22;56475;52.114;5.480;2022-08-11T19:20:08;28.60;26.60
69331;DHT22;56475;52.114;5.480;2022-08-11T19:22:56;28.30;27.30
69331;DHT22;56475;52.114;5.480;2022-08-11T19:25:44;28.10;27.90
69331;DHT22;56475;52.114;5.480;2022-08-11T19:28:31;27.80;28.50
69331;DHT22;56475;52.114;5.480;2022-08-11T19:31:18;27.60;29.00
69331;DHT22;56475;52.114;5.480;2022-08-11T19:34:12;27.30;29.50
69331;DHT22;56475;52.114;5.480;2022-08-11T19:37:01;27.00;29.90
69331;DHT22;56475;52.114;5.480;2022-08-11T19:39:53;26.80;30.00
69331;DHT22;56475;52.114;5.480;2022-08-11T19:42:41;26.50;30.50
69331;DHT22;56475;52.114;5.480;2022-08-11T19:45:27;26.30;31.20
69331;DHT22;56475;52.114;5.480;2022-08-11T19:48:22;26.10;31.70
69331;DHT22;56475;52.114;5.480;2022-08-11T19:51:10;25.90;32.10
69331;DHT22;56475;52.114;5.480;2022-08-11T19:53:56;25.70;32.40
69331;DHT22;56475;52.114;5.480;2022-08-11T19:56:43;25.50;32.80
69331;DHT22;56475;52.114;5.480;2022-08-11T19:59:30;25.40;33.30
69331;DHT22;56475;52.114;5.480;2022-08-11T20:02:18;25.20;33.50
69331;DHT22;56475;52.114;5.480;2022-08-11T20:05:05;25.10;33.80
69331;DHT22;56475;52.114;5.480;2022-08-11T20:07:53;25.00;34.30
69331;DHT22;56475;52.114;5.480;2022-08-11T20:10:41;24.90;34.60
69331;DHT22;56475;52.114;5.480;2022-08-11T20:13:29;24.70;34.80
69331;DHT22;56475;52.114;5.480;2022-08-11T20:16:18;24.60;35.60
69331;DHT22;56475;52.114;5.480;2022-08-11T20:19:05;24.40;37.20
69331;DHT22;56475;52.114;5.480;2022-08-11T20:22:13;24.30;36.50
69331;DHT22;56475;52.114;5.480;2022-08-11T20:25:01;24.20;37.00